Time;durP1;ratioP1;P1;durP2;ratioP2;P2;SDS_P1;SDS_P2;PMS_P1;PMS_P2;Temp;Humidity;BMP_temperature;BMP_pressure;BME280_temperature;BME280_humidity;BME280_pressure;Samples;Min_cycle;Max_cycle;Signal;HPM_P1;HPM_P2
2022/06/28 00:00:22;;;;;;;6.20;1.80;;;12.70;99.90;;;;;;4979385;28;20169;-64
2022/06/28 00:02:48;;;;;;;10.05;2.05;;;12.70;99.90;;;;;;4976122;28;20039;-64
2022/06/28 00:05:14;;;;;;;5.72;1.70;;;12.70;99.90;;;;;;4978839;28;20037;-63
2022/06/28 00:07:41;;;;;;;4.97;1.70;;;12.70;99.90;;;;;;4980348;28;20054;-62
2022/06/28 00:10:08;;;;;;;5.57;1.60;;;12.60;99.90;;;;;;4980731;28;20035;-63
2022/06/28 00:12:34;;;;;;;6.07;2.05;;;12.80;99.90;;;;;;4979506;28;20516;-64
2022/06/28 00:17:44;;;;;;;8.35;2.00;;;12.40;99.90;;;;;;4976304;28;20038;-65
2022/06/28 00:20:10;;;;;;;9.70;2.30;;;12.50;99.90;;;;;;4978680;28;20407;-63
2022/06/28 00:22:36;;;;;;;6.15;2.10;;;12.30;99.90;;;;;;4980514;28;20031;-63
2022/06/28 00:25:03;;;;;;;7.78;1.88;;;12.20;99.90;;;;;;4977721;28;20113;-65
2022/06/28 00:27:28;;;;;;;6.95;1.85;;;12.20;99.90;;;;;;4987849;28;20031;-65
2022/06/28 00:29:54;;;;;;;5.30;1.83;;;12.20;99.90;;;;;;4991235;28;20037;-65
2022/06/28 00:32:20;;;;;;;5.50;1.70;;;12.30;99.90;;;;;;4987630;28;20395;-65
2022/06/28 00:34:47;;;;;;;10.35;2.30;;;12.20;99.90;;;;;;4986276;28;20034;-65
2022/06/28 00:37:13;;;;;;;7.07;2.10;;;12.10;99.90;;;;;;4986898;28;20578;-63
2022/06/28 00:39:39;;;;;;;5.50;2.00;;;12.00;99.90;;;;;;4987246;28;20419;-64
2022/06/28 00:42:07;;;;;;;8.30;2.10;;;12.10;99.90;;;;;;4990660;28;20037;-62
2022/06/28 00:44:33;;;;;;;7.93;2.03;;;12.00;99.90;;;;;;4988538;28;20030;-62
2022/06/28 00:47:00;;;;;;;6.35;1.90;;;12.00;99.90;;;;;;4987480;28;20465;-64
2022/06/28 00:49:26;;;;;;;7.47;2.20;;;11.90;99.90;;;;;;4990221;28;20026;-63
2022/06/28 00:51:52;;;;;;;7.22;1.88;;;11.90;99.90;;;;;;4992236;28;20042;-64
2022/06/28 00:54:18;;;;;;;5.63;1.80;;;11.80;99.90;;;;;;4979741;28;20475;-63
2022/06/28 00:56:43;;;;;;;10.57;2.08;;;11.60;99.90;;;;;;4992890;28;20084;-63
2022/06/28 00:59:10;;;;;;;9.93;1.80;;;11.70;99.90;;;;;;4990934;28;20100;-63
2022/06/28 01:01:35;;;;;;;3.58;1.70;;;12.10;99.90;;;;;;4989997;28;20030;-63
2022/06/28 01:04:02;;;;;;;6.18;2.00;;;12.30;99.90;;;;;;4989716;28;20041;-63
2022/06/28 01:06:27;;;;;;;5.30;2.10;;;11.80;99.90;;;;;;4990735;28;20046;-64
2022/06/28 01:08:53;;;;;;;4.20;1.73;;;11.60;99.90;;;;;;4994027;28;20443;-64
2022/06/28 01:11:19;;;;;;;6.28;1.70;;;11.60;99.90;;;;;;4991100;28;20026;-64
2022/06/28 01:13:50;;;;;;;7.32;1.92;;;11.50;99.90;;;;;;4989941;28;20031;-64
2022/06/28 01:16:17;;;;;;;9.00;1.80;;;11.40;99.90;;;;;;4989780;28;20035;-63
2022/06/28 01:18:43;;;;;;;7.50;2.15;;;11.50;99.90;;;;;;4992376;28;20072;-65
2022/06/28 01:21:15;;;;;;;8.40;2.30;;;11.40;99.90;;;;;;4980055;28;20092;-64
2022/06/28 01:23:45;;;;;;;6.80;2.08;;;11.30;99.90;;;;;;4979086;28;20037;-63
2022/06/28 01:26:12;;;;;;;5.65;2.05;;;11.30;99.90;;;;;;4979646;28;20039;-63
2022/06/28 01:28:39;;;;;;;4.82;1.80;;;11.20;99.90;;;;;;4983163;28;20038;-63
2022/06/28 01:31:05;;;;;;;6.78;1.98;;;11.20;99.90;;;;;;4983416;28;20058;-63
2022/06/28 01:33:32;;;;;;;6.40;2.10;;;11.20;99.90;;;;;;4982809;28;20011;-64
2022/06/28 01:35:58;;;;;;;6.90;1.90;;;11.10;99.90;;;;;;4978687;28;20042;-63
2022/06/28 01:38:24;;;;;;;9.73;2.15;;;11.10;99.90;;;;;;4990318;28;20049;-64
2022/06/28 01:40:50;;;;;;;7.57;2.13;;;11.20;99.90;;;;;;4988040;28;20464;-62
2022/06/28 01:43:17;;;;;;;5.57;1.67;;;11.30;99.90;;;;;;4989343;28;20470;-63
2022/06/28 01:45:44;;;;;;;6.47;2.00;;;11.30;99.90;;;;;;4989581;28;20027;-62
2022/06/28 01:48:10;;;;;;;5.55;1.80;;;11.20;99.90;;;;;;4991789;28;20018;-62
2022/06/28 01:50:37;;;;;;;6.40;2.00;;;11.00;99.90;;;;;;4991010;28;20046;-63
2022/06/28 01:53:03;;;;;;;7.38;2.00;;;10.90;99.90;;;;;;4990010;28;20042;-62
2022/06/28 01:55:29;;;;;;;6.95;1.90;;;10.80;99.90;;;;;;4988941;28;20054;-63
2022/06/28 01:57:55;;;;;;;7.32;2.20;;;10.70;99.90;;;;;;4990295;28;20429;-63
2022/06/28 02:00:21;;;;;;;8.73;2.13;;;10.60;99.90;;;;;;4980185;28;20140;-63
2022/06/28 02:02:46;;;;;;;6.30;1.80;;;10.60;99.90;;;;;;4976622;28;20027;-64
2022/06/28 02:05:12;;;;;;;6.00;1.90;;;10.70;99.90;;;;;;4980530;28;20109;-64
2022/06/28 02:07:49;;;;;;;7.28;1.90;;;10.80;99.90;;;;;;4982488;28;20492;-62
2022/06/28 02:10:18;;;;;;;7.35;2.00;;;10.60;99.90;;;;;;4982520;28;20042;-63
2022/06/28 02:12:44;;;;;;;8.35;1.90;;;10.60;99.90;;;;;;4982348;28;20018;-62
2022/06/28 02:15:11;;;;;;;6.32;1.83;;;10.80;99.90;;;;;;4979441;28;20041;-64
2022/06/28 02:17:37;;;;;;;6.30;1.85;;;10.90;99.90;;;;;;4977367;28;20034;-64
2022/06/28 02:20:03;;;;;;;6.70;1.77;;;10.90;99.90;;;;;;4981352;28;20034;-64
2022/06/28 02:22:29;;;;;;;6.60;1.80;;;10.80;99.90;;;;;;4982081;28;20081;-62
2022/06/28 02:24:54;;;;;;;7.60;1.80;;;10.70;99.90;;;;;;4982091;28;20435;-64
2022/06/28 02:27:20;;;;;;;3.00;1.60;;;10.50;99.90;;;;;;4980731;28;20105;-62
2022/06/28 02:29:47;;;;;;;5.57;1.73;;;10.90;99.90;;;;;;4977461;28;20110;-64
2022/06/28 02:32:12;;;;;;;6.40;1.75;;;10.80;99.90;;;;;;4979599;28;20027;-64
2022/06/28 02:40:24;;;;;;;5.25;1.80;;;10.40;99.90;;;;;;4981970;28;20559;-62
2022/06/28 02:42:57;;;;;;;5.50;1.50;;;10.50;99.90;;;;;;4981502;28;20827;-64
2022/06/28 02:45:26;;;;;;;3.65;1.77;;;10.50;99.90;;;;;;4980757;28;20053;-63
2022/06/28 02:47:52;;;;;;;7.95;1.80;;;10.40;99.90;;;;;;4977520;28;20034;-63
2022/06/28 02:50:18;;;;;;;6.28;1.95;;;10.40;99.90;;;;;;4978861;28;20031;-63
2022/06/28 02:52:44;;;;;;;4.90;2.03;;;10.60;99.90;;;;;;4986882;28;20173;-64
2022/06/28 02:55:10;;;;;;;5.80;1.75;;;10.60;99.90;;;;;;4987870;28;20042;-63
2022/06/28 02:57:36;;;;;;;3.60;1.70;;;10.70;99.90;;;;;;4988392;28;20381;-64
2022/06/28 03:00:14;;;;;;;5.38;2.00;;;10.80;99.90;;;;;;4991263;28;20407;-61
2022/06/28 03:02:41;;;;;;;8.80;1.98;;;11.00;99.90;;;;;;4990470;28;20105;-64
2022/06/28 03:05:10;;;;;;;6.90;2.03;;;10.90;99.90;;;;;;4977761;28;20035;-63
2022/06/28 03:07:36;;;;;;;4.28;2.40;;;10.90;99.90;;;;;;4981259;28;20038;-61
2022/06/28 03:10:02;;;;;;;7.47;2.58;;;11.00;99.90;;;;;;4981001;28;20038;-64
2022/06/28 03:12:28;;;;;;;3.97;1.67;;;11.00;99.90;;;;;;4981056;28;20034;-63
2022/06/28 03:14:54;;;;;;;6.30;1.95;;;11.10;99.90;;;;;;4976427;28;20050;-64
2022/06/28 03:17:20;;;;;;;5.88;1.70;;;11.20;99.90;;;;;;4977990;28;20035;-63
2022/06/28 03:19:46;;;;;;;3.95;1.58;;;11.40;99.90;;;;;;4987681;28;20023;-64
2022/06/28 03:22:12;;;;;;;3.47;1.50;;;11.30;99.90;;;;;;4981058;28;20043;-64
2022/06/28 03:24:37;;;;;;;5.15;1.70;;;11.40;99.90;;;;;;4981155;28;20483;-64
2022/06/28 03:27:03;;;;;;;3.83;1.60;;;11.50;99.90;;;;;;4977595;28;20034;-64
2022/06/28 03:29:29;;;;;;;5.80;1.70;;;11.50;99.90;;;;;;4976610;28;20023;-64
2022/06/28 03:31:55;;;;;;;5.40;1.80;;;11.40;99.90;;;;;;4987975;28;20431;-63
2022/06/28 03:34:20;;;;;;;4.93;2.20;;;11.30;99.90;;;;;;4987600;28;20030;-64
2022/06/28 03:36:47;;;;;;;6.45;1.88;;;11.30;99.90;;;;;;4987534;28;20034;-62
2022/06/28 03:39:13;;;;;;;6.13;2.00;;;11.40;99.90;;;;;;4989817;28;20033;-64
2022/06/28 03:41:39;;;;;;;6.32;1.90;;;11.40;99.90;;;;;;4988412;28;20066;-64
2022/06/28 03:44:05;;;;;;;5.63;2.08;;;11.50;99.90;;;;;;4987758;28;20151;-64
2022/06/28 03:46:31;;;;;;;4.72;2.00;;;11.40;99.90;;;;;;4987472;28;20027;-62
2022/06/28 03:48:56;;;;;;;5.57;1.90;;;11.30;99.90;;;;;;4987722;28;20036;-64
2022/06/28 03:51:22;;;;;;;4.57;1.60;;;11.20;99.90;;;;;;4988653;28;20102;-64
2022/06/28 03:53:48;;;;;;;4.47;1.92;;;11.20;99.90;;;;;;4990951;28;20046;-64
2022/06/28 03:56:14;;;;;;;6.97;1.98;;;11.40;99.90;;;;;;4978188;28;20408;-64
2022/06/28 03:58:39;;;;;;;5.07;1.60;;;11.80;99.90;;;;;;4980859;28;20480;-63
2022/06/28 04:01:05;;;;;;;6.07;1.80;;;11.70;99.90;;;;;;4980795;28;20026;-65
2022/06/28 04:03:31;;;;;;;8.77;1.95;;;11.40;99.90;;;;;;4980767;28;20081;-64
2022/06/28 04:05:57;;;;;;;5.03;1.83;;;11.30;99.90;;;;;;4976775;28;20030;-64
2022/06/28 04:08:22;;;;;;;5.43;1.95;;;11.50;99.90;;;;;;4977216;28;20037;-62
2022/06/28 04:10:48;;;;;;;5.20;1.85;;;11.30;99.90;;;;;;4980601;28;20038;-64
2022/06/28 04:13:14;;;;;;;6.25;2.13;;;11.20;99.90;;;;;;4980701;28;20037;-64
2022/06/28 04:15:40;;;;;;;4.47;2.05;;;11.20;99.90;;;;;;4980472;28;20109;-64
2022/06/28 04:18:06;;;;;;;5.55;1.98;;;11.10;99.90;;;;;;4977404;28;20026;-64
2022/06/28 04:20:33;;;;;;;6.75;2.00;;;11.10;99.90;;;;;;4976153;28;20487;-64
2022/06/28 04:22:59;;;;;;;5.13;2.10;;;11.10;99.90;;;;;;4981769;28;20113;-65
2022/06/28 04:25:25;;;;;;;6.85;2.13;;;11.20;99.90;;;;;;4984452;28;20118;-63
2022/06/28 04:27:56;;;;;;;5.97;2.17;;;11.20;99.90;;;;;;4984288;28;20027;-64
2022/06/28 04:30:22;;;;;;;6.07;2.22;;;11.10;99.90;;;;;;4983095;28;20483;-64
2022/06/28 04:32:48;;;;;;;7.03;1.90;;;11.00;99.90;;;;;;4979630;28;20039;-64
2022/06/28 04:35:13;;;;;;;7.60;2.15;;;11.20;99.90;;;;;;4982168;28;20392;-64
2022/06/28 04:37:39;;;;;;;6.72;1.95;;;11.20;99.90;;;;;;4984049;28;20105;-63
2022/06/28 04:40:05;;;;;;;7.65;2.20;;;11.40;99.90;;;;;;4983943;28;20077;-63
2022/06/28 04:42:31;;;;;;;6.95;1.90;;;11.30;99.90;;;;;;4983720;28;20065;-62
2022/06/28 04:44:56;;;;;;;5.20;1.80;;;11.50;99.90;;;;;;4994155;28;20420;-63
2022/06/28 04:47:22;;;;;;;8.25;2.10;;;11.40;99.90;;;;;;4980872;28;20031;-64
2022/06/28 04:49:48;;;;;;;7.20;2.03;;;11.30;99.90;;;;;;4983900;28;20035;-64
2022/06/28 04:52:13;;;;;;;5.28;1.83;;;11.50;99.90;;;;;;4983607;28;20531;-62
2022/06/28 04:54:39;;;;;;;11.10;2.10;;;11.60;99.90;;;;;;4983792;28;20117;-63
2022/06/28 04:57:05;;;;;;;7.32;2.13;;;11.60;99.90;;;;;;4980326;28;20062;-64
2022/06/28 04:59:31;;;;;;;7.00;1.80;;;11.80;99.90;;;;;;4979330;28;20023;-64
2022/06/28 05:01:56;;;;;;;5.70;2.10;;;11.80;99.90;;;;;;4983583;28;20480;-64
2022/06/28 05:04:22;;;;;;;4.70;1.60;;;11.80;99.90;;;;;;4973922;28;20034;-64
2022/06/28 05:06:48;;;;;;;6.93;2.03;;;11.90;99.90;;;;;;4983193;28;20119;-64
2022/06/28 05:09:13;;;;;;;4.70;1.70;;;11.90;99.90;;;;;;4981478;28;20073;-64
2022/06/28 05:11:39;;;;;;;6.32;1.98;;;12.00;99.90;;;;;;4978508;28;20041;-63
2022/06/28 05:14:06;;;;;;;5.22;1.77;;;11.90;99.90;;;;;;4982149;28;20488;-64
2022/06/28 05:16:32;;;;;;;7.65;2.13;;;12.00;99.90;;;;;;4983512;28;20423;-64
2022/06/28 05:18:58;;;;;;;7.10;1.98;;;11.90;99.90;;;;;;4983227;28;20023;-64
2022/06/28 05:21:23;;;;;;;7.15;1.70;;;11.90;99.90;;;;;;4982332;28;20034;-63
2022/06/28 05:23:49;;;;;;;5.18;1.90;;;12.40;99.90;;;;;;4978724;28;20029;-63
2022/06/28 05:26:15;;;;;;;7.43;2.00;;;13.70;99.90;;;;;;4980421;28;20031;-64
2022/06/28 05:28:41;;;;;;;9.68;2.17;;;14.40;99.90;;;;;;4988292;28;20026;-64
2022/06/28 05:31:06;;;;;;;4.70;1.75;;;14.40;99.90;;;;;;4989580;28;20419;-63
2022/06/28 05:33:32;;;;;;;8.57;1.90;;;15.10;99.90;;;;;;4989756;28;20094;-64
2022/06/28 05:35:58;;;;;;;4.50;1.40;;;14.60;99.90;;;;;;4994012;28;20117;-63
2022/06/28 05:38:23;;;;;;;2.88;1.40;;;15.20;99.90;;;;;;4990230;28;20549;-61
2022/06/28 05:40:49;;;;;;;4.95;1.60;;;16.40;99.90;;;;;;4989114;28;20026;-64
2022/06/28 05:43:15;;;;;;;6.15;1.83;;;16.90;99.90;;;;;;4989796;28;20030;-63
2022/06/28 05:45:40;;;;;;;4.22;1.48;;;17.60;99.90;;;;;;4989441;28;20077;-63
2022/06/28 05:48:07;;;;;;;7.25;1.70;;;18.50;99.90;;;;;;4992905;28;20033;-64
2022/06/28 05:50:32;;;;;;;5.18;1.50;;;17.70;99.90;;;;;;4989617;28;20441;-64
2022/06/28 05:52:58;;;;;;;5.25;1.40;;;17.50;99.90;;;;;;4982337;28;20177;-64
2022/06/28 05:55:24;;;;;;;4.63;1.67;;;18.80;99.90;;;;;;4982193;28;20133;-64
2022/06/28 05:57:50;;;;;;;2.22;1.08;;;18.60;99.90;;;;;;4982812;28;20719;-64
2022/06/28 06:00:16;;;;;;;3.40;1.10;;;19.70;99.90;;;;;;4980493;28;20025;-65
2022/06/28 06:02:42;;;;;;;4.05;1.10;;;19.70;99.90;;;;;;4978148;28;20041;-63
2022/06/28 06:05:08;;;;;;;3.30;1.30;;;20.10;99.90;;;;;;4980797;28;20026;-64
2022/06/28 06:07:34;;;;;;;4.15;1.60;;;20.40;99.90;;;;;;4986610;28;20061;-62
2022/06/28 06:09:59;;;;;;;2.50;1.33;;;21.30;99.90;;;;;;4985129;28;20447;-64
2022/06/28 06:12:25;;;;;;;3.17;1.48;;;20.70;99.90;;;;;;4978146;28;20035;-63
2022/06/28 06:14:51;;;;;;;5.70;1.50;;;20.20;99.90;;;;;;4992498;28;20022;-64
2022/06/28 06:17:17;;;;;;;3.42;1.35;;;20.50;99.90;;;;;;4989698;28;20530;-64
2022/06/28 06:19:43;;;;;;;4.82;1.60;;;20.90;99.90;;;;;;4979668;28;20031;-64
2022/06/28 06:22:08;;;;;;;3.78;1.40;;;22.00;99.90;;;;;;4982791;28;20058;-64
2022/06/28 06:24:34;;;;;;;3.85;1.70;;;22.70;99.90;;;;;;4988374;28;20045;-64
2022/06/28 06:27:00;;;;;;;6.32;1.50;;;23.20;99.90;;;;;;4992993;28;20030;-64
2022/06/28 06:29:26;;;;;;;4.38;1.73;;;23.30;99.90;;;;;;4989646;28;20463;-63
2022/06/28 06:31:52;;;;;;;4.10;1.45;;;23.80;99.90;;;;;;4982057;28;20027;-64
2022/06/28 06:34:18;;;;;;;6.72;1.67;;;24.00;99.90;;;;;;4982115;28;20093;-64
2022/06/28 06:36:46;;;;;;;5.22;1.60;;;24.80;99.90;;;;;;4981809;28;20035;-62
2022/06/28 06:39:13;;;;;;;5.28;1.60;;;24.40;99.90;;;;;;4978969;28;20044;-62
2022/06/28 06:41:39;;;;;;;9.07;2.30;;;23.50;99.90;;;;;;4977282;28;20037;-64
2022/06/28 06:44:05;;;;;;;7.43;1.75;;;23.70;99.90;;;;;;4980782;28;20030;-64
2022/06/28 06:46:30;;;;;;;7.40;2.05;;;24.10;99.90;;;;;;4984599;28;20031;-64
2022/06/28 06:48:56;;;;;;;10.88;1.63;;;23.90;99.90;;;;;;4989396;28;20480;-64
2022/06/28 06:51:22;;;;;;;4.72;1.60;;;22.60;99.90;;;;;;4980536;28;20117;-65
2022/06/28 06:53:48;;;;;;;7.50;1.80;;;24.00;99.90;;;;;;4976786;28;20057;-62
2022/06/28 06:56:13;;;;;;;5.57;1.90;;;24.60;99.90;;;;;;4979574;28;20435;-64
2022/06/28 06:58:39;;;;;;;4.30;1.60;;;26.50;99.40;;;;;;4981403;28;20063;-65
2022/06/28 07:01:05;;;;;;;9.90;2.17;;;26.10;98.80;;;;;;4981395;28;20050;-65
2022/06/28 07:03:31;;;;;;;8.05;1.80;;;24.80;99.90;;;;;;4981221;28;20524;-65
2022/06/28 07:05:56;;;;;;;4.85;1.85;;;24.90;99.90;;;;;;4976246;28;20114;-64
2022/06/28 07:08:22;;;;;;;4.47;1.45;;;27.30;97.10;;;;;;4989045;28;20022;-63
2022/06/28 07:10:48;;;;;;;5.68;1.58;;;24.00;99.90;;;;;;4981764;28;20439;-66
2022/06/28 07:13:14;;;;;;;5.45;1.70;;;22.40;99.90;;;;;;4980045;28;20035;-63
2022/06/28 07:15:40;;;;;;;10.55;2.13;;;24.00;99.90;;;;;;4987744;28;20388;-65
2022/06/28 07:18:06;;;;;;;6.38;1.83;;;25.40;99.00;;;;;;4991178;28;20070;-64
2022/06/28 07:20:32;;;;;;;5.00;1.70;;;25.30;98.70;;;;;;4988798;28;20065;-65
2022/06/28 07:22:57;;;;;;;5.20;1.80;;;25.90;98.20;;;;;;4980923;28;20106;-63
2022/06/28 07:25:23;;;;;;;6.57;1.92;;;25.40;98.10;;;;;;4983919;28;20122;-64
2022/06/28 07:27:49;;;;;;;7.07;1.63;;;25.70;97.90;;;;;;4987457;28;20496;-64
2022/06/28 07:30:15;;;;;;;7.35;1.80;;;26.20;96.70;;;;;;4989627;28;20081;-65
2022/06/28 07:32:40;;;;;;;4.25;1.73;;;24.80;98.20;;;;;;4989827;28;20038;-64
2022/06/28 07:35:07;;;;;;;4.38;1.50;;;25.50;97.60;;;;;;4988064;28;20084;-63
2022/06/28 07:37:33;;;;;;;5.22;1.48;;;27.70;95.30;;;;;;4987324;28;20034;-64
2022/06/28 07:39:58;;;;;;;4.43;1.50;;;26.40;94.90;;;;;;4987338;28;20034;-64
2022/06/28 07:42:24;;;;;;;4.22;1.42;;;25.90;96.20;;;;;;4988376;28;20125;-64
2022/06/28 07:44:50;;;;;;;5.45;1.48;;;25.60;96.40;;;;;;4990861;28;20022;-66
2022/06/28 07:47:16;;;;;;;4.82;1.65;;;25.40;96.20;;;;;;4988382;28;20499;-65
2022/06/28 07:52:36;;;;;;;5.85;1.67;;;25.60;95.20;;;;;;4980612;28;20045;-66
2022/06/28 07:55:03;;;;;;;7.47;1.90;;;25.50;96.10;;;;;;4980383;28;20030;-66
2022/06/28 07:57:29;;;;;;;4.75;1.60;;;26.00;94.70;;;;;;4982765;28;20227;-66
2022/06/28 07:59:55;;;;;;;3.42;1.67;;;26.00;94.70;;;;;;4980101;28;20506;-66
2022/06/28 08:02:21;;;;;;;5.55;1.60;;;27.60;93.60;;;;;;4981264;28;20026;-66
2022/06/28 08:04:47;;;;;;;8.48;1.67;;;27.90;93.60;;;;;;4990200;28;20041;-66
2022/06/28 08:07:13;;;;;;;7.38;2.15;;;27.10;93.50;;;;;;4991055;28;20023;-64
2022/06/28 08:09:39;;;;;;;6.05;1.60;;;26.70;93.90;;;;;;4994299;28;20044;-66
2022/06/28 08:12:05;;;;;;;3.78;1.45;;;27.60;92.30;;;;;;4992178;28;20022;-66
2022/06/28 08:14:31;;;;;;;4.03;1.52;;;28.90;91.90;;;;;;4994667;28;20049;-65
2022/06/28 08:16:57;;;;;;;3.30;1.50;;;27.50;92.80;;;;;;4994359;28;20042;-66
2022/06/28 08:19:23;;;;;;;6.95;1.50;;;27.00;93.00;;;;;;4994103;28;20034;-66
2022/06/28 08:21:49;;;;;;;5.13;1.88;;;27.70;91.20;;;;;;4994640;28;20041;-66
2022/06/28 08:24:16;;;;;;;3.55;1.23;;;27.90;91.30;;;;;;4994306;28;20117;-65
2022/06/28 08:26:43;;;;;;;5.72;1.50;;;31.00;85.40;;;;;;4994449;28;20030;-67
2022/06/28 08:29:20;;;;;;;4.88;1.40;;;29.50;89.10;;;;;;4993254;28;20029;-67
2022/06/28 08:31:46;;;;;;;3.58;1.35;;;28.20;90.60;;;;;;4993084;28;20096;-67
2022/06/28 08:34:12;;;;;;;3.85;1.55;;;28.10;89.80;;;;;;4993825;28;20377;-67
2022/06/28 08:36:38;;;;;;;4.57;1.38;;;29.70;87.60;;;;;;4994015;28;20806;-67
2022/06/28 08:39:04;;;;;;;4.55;1.48;;;27.80;90.10;;;;;;4994296;28;20038;-66
2022/06/28 08:41:32;;;;;;;5.15;1.45;;;28.80;87.60;;;;;;4994824;28;20097;-66
2022/06/28 08:43:58;;;;;;;3.70;1.60;;;28.70;87.30;;;;;;4994054;28;20409;-66
2022/06/28 08:46:25;;;;;;;4.85;1.40;;;28.40;88.10;;;;;;4994235;28;20086;-67
2022/06/28 08:49:01;;;;;;;3.65;1.55;;;27.40;89.80;;;;;;4990107;28;20031;-66
2022/06/28 08:51:31;;;;;;;4.93;1.52;;;29.90;85.50;;;;;;4991138;28;20027;-67
2022/06/28 08:54:00;;;;;;;4.00;1.45;;;29.50;84.70;;;;;;4992018;28;20050;-67
2022/06/28 08:56:26;;;;;;;5.25;1.55;;;31.60;80.80;;;;;;4992165;28;20054;-68
2022/06/28 08:58:53;;;;;;;4.40;1.50;;;29.80;85.20;;;;;;4993757;28;20060;-68
2022/06/28 09:01:18;;;;;;;3.80;1.52;;;31.70;83.60;;;;;;4993519;28;20523;-68
2022/06/28 09:03:49;;;;;;;4.90;1.40;;;29.40;85.70;;;;;;4993499;28;20057;-68
2022/06/28 09:06:15;;;;;;;4.18;1.63;;;28.50;83.30;;;;;;4993525;28;20030;-67
2022/06/28 09:08:41;;;;;;;5.22;1.50;;;29.90;83.90;;;;;;4990942;28;20506;-67
2022/06/28 09:11:07;;;;;;;3.63;1.40;;;28.00;86.30;;;;;;4994483;28;20052;-69
2022/06/28 09:13:35;;;;;;;4.65;1.42;;;27.60;87.30;;;;;;4993367;28;20070;-68
2022/06/28 09:16:03;;;;;;;4.45;1.58;;;28.20;85.80;;;;;;4989341;28;20203;-67
2022/06/28 09:18:38;;;;;;;3.90;1.33;;;28.30;86.70;;;;;;4992961;28;20033;-68
2022/06/28 09:21:13;;;;;;;4.00;1.35;;;28.20;87.00;;;;;;4993079;28;20046;-68
2022/06/28 09:23:44;;;;;;;3.47;1.52;;;30.20;83.40;;;;;;4991841;28;20030;-68
2022/06/28 09:26:16;;;;;;;3.72;1.60;;;29.50;83.80;;;;;;4991646;28;20022;-69
2022/06/28 09:28:44;;;;;;;4.35;1.38;;;29.70;84.20;;;;;;4991359;28;20094;-68
2022/06/28 09:31:23;;;;;;;4.25;1.40;;;31.70;80.50;;;;;;4990889;28;20033;-68
2022/06/28 09:34:02;;;;;;;4.40;1.65;;;28.90;86.40;;;;;;4991681;28;20117;-68
2022/06/28 09:36:29;;;;;;;6.43;1.50;;;27.30;89.20;;;;;;4993111;28;20129;-68
2022/06/28 09:38:56;;;;;;;3.65;1.48;;;28.10;87.60;;;;;;4991114;28;20018;-67
2022/06/28 09:41:29;;;;;;;3.83;1.40;;;29.20;81.60;;;;;;4989190;28;20051;-68
2022/06/28 09:44:07;;;;;;;4.90;1.20;;;29.00;84.80;;;;;;4988569;28;20027;-69
2022/06/28 09:46:33;;;;;;;7.82;1.48;;;28.60;84.50;;;;;;4990409;28;20038;-69
2022/06/28 09:49:04;;;;;;;3.35;1.40;;;27.20;89.00;;;;;;4992543;28;20117;-69
2022/06/28 09:51:32;;;;;;;3.42;1.33;;;26.00;90.90;;;;;;4990419;28;20026;-69
2022/06/28 09:54:04;;;;;;;3.38;1.20;;;27.90;87.20;;;;;;4991896;28;20034;-67
2022/06/28 09:56:37;;;;;;;5.93;1.48;;;26.20;90.30;;;;;;4990834;28;20116;-68
2022/06/28 09:59:04;;;;;;;;;;;26.70;90.30;;;;;;4993271;28;20545;-69
2022/06/28 10:01:30;;;;;;;3.10;1.20;;;26.40;89.80;;;;;;4992302;28;19906;-68
2022/06/28 10:03:58;;;;;;;4.70;1.33;;;25.80;90.50;;;;;;4991204;28;20403;-66
2022/06/28 10:06:25;;;;;;;5.63;1.52;;;25.50;91.00;;;;;;4990403;28;20404;-68
2022/06/28 10:08:51;;;;;;;3.85;1.30;;;26.50;90.00;;;;;;4992430;28;20117;-68
2022/06/28 10:11:17;;;;;;;3.42;1.27;;;26.40;90.10;;;;;;4989580;28;20623;-68
2022/06/28 10:16:38;;;;;;;3.67;1.25;;;26.70;89.00;;;;;;4988486;28;20099;-60
2022/06/28 10:19:06;;;;;;;4.53;1.40;;;28.10;85.90;;;;;;4988500;28;20089;-61
2022/06/28 10:21:57;;;;;;;5.40;1.55;;;27.70;87.80;;;;;;4988163;28;20026;-59
2022/06/28 10:24:43;;;;;;;4.60;1.77;;;26.90;89.40;;;;;;4975929;28;20117;-60
2022/06/28 10:27:14;;;;;;;5.07;1.80;;;27.70;88.00;;;;;;4977723;28;20026;-59
2022/06/28 10:30:00;;;;;;;4.43;1.30;;;26.90;90.40;;;;;;4990372;28;20030;-61
2022/06/28 10:32:39;;;;;;;3.30;1.30;;;26.90;90.20;;;;;;4979130;28;20108;-61
2022/06/28 10:35:05;;;;;;;4.50;1.50;;;25.90;91.10;;;;;;4988483;28;20031;-61
2022/06/28 10:37:30;;;;;;;5.55;1.50;;;25.90;91.70;;;;;;4985059;28;20042;-59
2022/06/28 10:40:24;;;;;;;5.60;1.50;;;25.40;91.20;;;;;;4982161;28;20027;-67
2022/06/28 10:42:59;;;;;;;4.35;1.45;;;25.70;90.60;;;;;;5107443;27;20481;-66
2022/06/28 10:46:00;;;;;;;4.57;1.35;;;25.30;90.90;;;;;;5107676;28;20023;-68
2022/06/28 10:48:27;;;;;;;3.80;1.27;;;26.20;90.00;;;;;;5095148;28;20019;-68
2022/06/28 10:50:59;;;;;;;3.75;1.35;;;25.10;91.00;;;;;;5107901;28;20132;-68
2022/06/28 10:53:32;;;;;;;3.93;1.50;;;26.10;90.10;;;;;;5109895;28;20522;-67
2022/06/28 10:56:10;;;;;;;4.40;1.85;;;27.10;88.00;;;;;;5106608;28;20491;-69
2022/06/28 10:58:55;;;;;;;3.50;1.33;;;26.90;89.60;;;;;;5107231;28;20391;-67
2022/06/28 11:01:40;;;;;;;3.13;1.23;;;26.00;90.50;;;;;;5107758;28;20036;-68
2022/06/28 11:04:10;;;;;;;2.75;1.25;;;26.00;90.90;;;;;;5107249;28;20611;-68
2022/06/28 11:06:41;;;;;;;3.33;1.48;;;26.00;90.80;;;;;;5107510;28;20030;-67
2022/06/28 11:09:13;;;;;;;5.20;1.52;;;25.90;91.00;;;;;;5107183;28;20034;-67
2022/06/28 11:12:18;;;;;;;2.97;1.20;;;26.20;89.90;;;;;;5108277;28;20528;-69
2022/06/28 11:14:47;;;;;;;4.93;1.40;;;25.60;91.60;;;;;;5105998;28;20028;-69
2022/06/28 11:17:42;;;;;;;3.50;1.23;;;25.30;91.90;;;;;;5106550;28;20035;-70
2022/06/28 11:20:13;;;;;;;4.65;1.40;;;26.00;88.10;;;;;;5107085;28;20093;-71
2022/06/28 11:22:48;;;;;;;4.45;1.52;;;26.60;89.50;;;;;;5107339;28;20476;-71
2022/06/28 11:25:21;;;;;;;3.15;1.48;;;26.10;90.30;;;;;;5106982;28;20024;-69
2022/06/28 11:27:53;;;;;;;3.70;1.42;;;26.20;91.00;;;;;;5105343;28;20407;-69
2022/06/28 11:30:23;;;;;;;4.32;1.60;;;27.30;88.70;;;;;;5106950;28;20504;-69
2022/06/28 11:32:50;;;;;;;3.33;1.23;;;27.00;89.10;;;;;;5106950;28;20031;-68
2022/06/28 11:35:24;;;;;;;3.33;1.35;;;27.10;89.70;;;;;;5108881;28;20044;-68
2022/06/28 11:37:54;;;;;;;4.53;1.30;;;25.50;91.10;;;;;;5106728;28;20062;-68
2022/06/28 11:40:43;;;;;;;4.35;1.45;;;25.80;91.20;;;;;;5106707;28;20112;-69
2022/06/28 11:43:14;;;;;;;3.40;1.45;;;25.70;89.90;;;;;;5103357;28;20082;-68
2022/06/28 11:45:43;;;;;;;3.35;1.38;;;25.50;86.80;;;;;;5106872;28;20109;-69
2022/06/28 11:48:16;;;;;;;2.40;1.10;;;25.50;89.50;;;;;;5106927;28;20502;-68
2022/06/28 11:50:46;;;;;;;3.88;1.73;;;25.10;91.10;;;;;;5107181;28;20488;-67
2022/06/28 11:53:14;;;;;;;3.47;1.40;;;24.80;91.90;;;;;;5099156;28;20024;-68
2022/06/28 11:55:52;;;;;;;3.75;1.40;;;25.60;90.40;;;;;;5091443;28;20099;-69
2022/06/28 11:58:27;;;;;;;2.90;1.30;;;26.30;90.40;;;;;;5092227;28;20028;-70
2022/06/28 12:01:16;;;;;;;1.88;1.13;;;26.10;91.80;;;;;;5092528;28;20043;-68
2022/06/28 12:03:41;;;;;;;2.42;1.20;;;25.30;86.90;;;;;;5092753;28;20020;-68
2022/06/28 12:06:22;;;;;;;3.42;1.23;;;25.30;87.40;;;;;;5093386;28;20031;-69
2022/06/28 12:08:52;;;;;;;5.38;1.40;;;25.70;87.90;;;;;;5092627;28;20035;-67
2022/06/28 12:11:33;;;;;;;3.70;1.20;;;26.30;87.30;;;;;;5094558;28;20055;-67
2022/06/28 12:14:08;;;;;;;2.97;1.25;;;26.10;86.40;;;;;;5091685;28;20056;-68
2022/06/28 12:16:37;;;;;;;4.63;1.50;;;26.10;88.00;;;;;;5092352;28;20520;-67
2022/06/28 12:19:06;;;;;;;3.15;1.10;;;26.30;90.00;;;;;;5092370;28;20455;-67
2022/06/28 12:21:32;;;;;;;4.32;1.45;;;25.70;90.80;;;;;;5092701;28;20115;-67
2022/06/28 12:23:58;;;;;;;2.88;1.30;;;25.90;90.70;;;;;;5091460;28;20044;-68
2022/06/28 12:26:57;;;;;;;3.55;1.40;;;26.20;90.40;;;;;;5093930;28;20047;-68
2022/06/28 12:29:22;;;;;;;4.55;1.30;;;26.80;88.60;;;;;;5071353;28;20433;-68
2022/06/28 12:31:48;;;;;;;2.97;1.23;;;26.80;89.80;;;;;;5069411;28;20028;-70
2022/06/28 12:34:15;;;;;;;4.38;1.50;;;25.40;91.50;;;;;;5068283;28;20047;-69
2022/06/28 12:36:41;;;;;;;3.22;1.50;;;25.30;91.70;;;;;;5068197;28;20028;-69
2022/06/28 12:39:07;;;;;;;2.53;1.40;;;24.70;91.70;;;;;;5069720;28;20041;-70
2022/06/28 12:41:33;;;;;;;4.80;1.30;;;25.30;91.10;;;;;;5070313;28;20059;-69
2022/06/28 12:43:58;;;;;;;2.60;1.20;;;25.60;90.50;;;;;;5070607;28;20077;-69
2022/06/28 12:46:25;;;;;;;2.90;1.20;;;26.10;90.10;;;;;;5069353;28;20078;-68
2022/06/28 12:48:50;;;;;;;3.00;1.38;;;24.80;91.70;;;;;;5069583;28;20039;-71
2022/06/28 12:51:16;;;;;;;2.85;1.20;;;25.50;91.20;;;;;;5069669;28;20044;-68
2022/06/28 12:53:42;;;;;;;5.97;1.30;;;25.30;91.40;;;;;;5069867;28;20520;-70
2022/06/28 12:56:09;;;;;;;3.40;1.35;;;25.00;92.10;;;;;;5070438;28;20029;-71
2022/06/28 12:58:36;;;;;;;3.83;1.48;;;25.00;90.60;;;;;;5051423;28;20044;-70
2022/06/28 13:01:02;;;;;;;2.50;1.30;;;24.70;90.20;;;;;;5069335;28;20028;-68
2022/06/28 13:03:28;;;;;;;3.67;1.60;;;24.60;90.90;;;;;;5069240;28;20036;-70
2022/06/28 13:05:54;;;;;;;3.55;1.50;;;24.40;91.20;;;;;;5073450;28;20020;-71